Time;durP1;ratioP1;P1;durP2;ratioP2;P2;SDS_P1;SDS_P2;PMS_P1;PMS_P2;Temp;Humidity;BMP_temperature;BMP_pressure;BME280_temperature;BME280_humidity;BME280_pressure;Samples;Min_cycle;Max_cycle;Signal;HPM_P1;HPM_P2
2021/12/12 00:00:41;;;;;;;27.90;10.73;;;;;;;3.14;100.00;101882.63;6192939;23;20020;-88
2021/12/12 00:03:19;;;;;;;28.85;10.38;;;;;;;3.40;100.00;101916.09;6245054;23;19996;-88
2021/12/12 00:05:55;;;;;;;27.33;9.40;;;;;;;3.37;100.00;101911.84;6218333;23;20011;-88
2021/12/12 00:08:24;;;;;;;23.98;9.73;;;;;;;3.14;100.00;101869.22;6243838;23;20388;-88
2021/12/12 00:10:58;;;;;;;25.33;9.13;;;;;;;3.44;100.00;101928.19;6245100;23;20019;-89
2021/12/12 00:13:31;;;;;;;25.33;11.05;;;;;;;3.24;100.00;101874.56;6217994;23;20010;-88
2021/12/12 00:15:56;;;;;;;22.73;8.95;;;;;;;3.47;100.00;101895.72;6245038;23;20010;-88
2021/12/12 00:18:22;;;;;;;25.27;9.90;;;;;;;3.48;100.00;101894.72;6218174;23;20090;-88
2021/12/12 00:20:49;;;;;;;22.20;8.70;;;;;;;3.39;100.00;101876.81;6218034;23;20008;-88
2021/12/12 00:23:15;;;;;;;24.40;9.52;;;;;;;3.54;100.00;101910.25;6218004;23;20026;-88
2021/12/12 00:25:49;;;;;;;23.88;9.55;;;;;;;3.27;100.00;101863.53;6244918;22;20093;-88
2021/12/12 00:28:15;;;;;;;24.60;8.40;;;;;;;3.56;100.00;101902.94;6218144;23;20004;-88
2021/12/12 00:30:43;;;;;;;27.27;9.88;;;;;;;3.48;100.00;101889.38;6168427;23;20031;-88
2021/12/12 00:33:09;;;;;;;25.73;8.95;;;;;;;3.58;100.00;101895.56;6217939;23;20004;-88
2021/12/12 00:35:35;;;;;;;22.17;8.38;;;;;;;3.60;100.00;101888.25;6193174;23;20004;-88
2021/12/12 00:38:10;;;;;;;28.83;8.98;;;;;;;3.59;100.00;101889.22;6218013;23;20324;-87
2021/12/12 00:40:40;;;;;;;25.73;8.60;;;;;;;3.60;100.00;101890.06;6244968;23;20487;-88
2021/12/12 00:43:22;;;;;;;21.40;8.70;;;;;;;3.49;100.00;101869.59;6244778;23;20001;-88
2021/12/12 00:45:49;;;;;;;29.02;8.82;;;;;;;3.52;100.00;101896.16;6217965;23;20106;-88
2021/12/12 00:48:15;;;;;;;25.63;8.35;;;;;;;3.35;100.00;101862.81;6217440;23;20011;-88
2021/12/12 00:50:44;;;;;;;27.55;9.15;;;;;;;3.49;100.00;101877.66;6244735;23;20004;-88
2021/12/12 00:53:11;;;;;;;26.20;9.10;;;;;;;3.14;100.00;101834.34;6193200;23;20019;-88
2021/12/12 00:55:40;;;;;;;27.17;9.15;;;;;;;3.03;100.00;101817.53;6192731;23;20019;-88
2021/12/12 00:58:12;;;;;;;22.30;9.00;;;;;;;3.06;100.00;101818.13;6217909;23;20422;-88
2021/12/12 01:00:44;;;;;;;23.25;9.40;;;;;;;3.32;100.00;101866.66;6217830;23;20012;-88
2021/12/12 01:03:11;;;;;;;23.52;8.57;;;;;;;3.40;100.00;101868.63;6244843;23;20000;-88
2021/12/12 01:05:38;;;;;;;28.23;10.45;;;;;;;3.34;100.00;101872.72;6193587;23;20012;-88
2021/12/12 01:08:07;;;;;;;27.50;10.50;;;;;;;3.29;100.00;101864.28;6246844;23;20004;-88
2021/12/12 01:10:41;;;;;;;27.08;10.00;;;;;;;3.22;100.00;101856.91;6195337;23;20018;-89
2021/12/12 01:13:07;;;;;;;25.90;11.23;;;;;;;2.97;100.00;101816.31;6246795;23;20312;-88
2021/12/12 01:15:42;;;;;;;27.00;10.32;;;;;;;3.13;100.00;101850.56;6194978;23;20062;-88
2021/12/12 01:18:14;;;;;;;29.92;10.20;;;;;;;2.86;100.00;101813.75;6246795;23;20039;-88
2021/12/12 01:20:43;;;;;;;;;;;;;;;3.26;100.00;101869.94;6220347;23;20012;-88
2021/12/12 01:23:35;;;;;;;25.15;9.43;;;;;;;3.24;100.00;101869.19;6219383;23;19957;-88
2021/12/12 01:26:03;;;;;;;;;;;;;;;3.32;100.00;101866.66;6220740;23;20010;-88
2021/12/12 01:28:32;;;;;;;31.08;10.77;;;;;;;3.23;100.00;101853.25;6219608;23;19931;-88
2021/12/12 01:31:02;;;;;;;32.45;10.18;;;;;;;3.09;100.00;101841.97;6219855;23;20443;-87
2021/12/12 01:33:34;;;;;;;28.65;10.30;;;;;;;3.34;100.00;101870.03;6219659;23;20370;-88
2021/12/12 01:36:06;;;;;;;29.88;11.50;;;;;;;3.23;100.00;101854.09;6219712;23;20094;-88
2021/12/12 01:38:53;;;;;;;28.95;10.40;;;;;;;3.37;100.00;101870.75;6219610;23;20011;-87
2021/12/12 01:41:47;;;;;;;27.70;10.65;;;;;;;3.28;100.00;101859.88;6219096;23;20004;-87
2021/12/12 01:44:18;;;;;;;30.05;10.52;;;;;;;3.17;100.00;101846.63;6219687;23;19996;-88
2021/12/12 01:46:53;;;;;;;33.53;11.43;;;;;;;3.21;100.00;101852.56;6219661;23;20043;-88
2021/12/12 01:49:23;;;;;;;30.27;11.32;;;;;;;3.08;100.00;101821.50;6219467;23;20075;-87
2021/12/12 01:51:49;;;;;;;34.72;12.00;;;;;;;3.13;100.00;101831.78;6219509;23;20004;-88
2021/12/12 01:54:22;;;;;;;31.48;11.57;;;;;;;3.20;100.00;101843.66;6219556;23;20004;-88
2021/12/12 01:56:54;;;;;;;28.75;11.10;;;;;;;3.35;100.00;101862.81;6245827;23;20071;-88
2021/12/12 01:59:25;;;;;;;;;;;;;;;3.38;100.00;101865.25;6219696;23;20028;-88
2021/12/12 02:01:59;;;;;;;27.60;10.88;;;;;;;3.41;100.00;101858.72;6219503;23;19983;-88
2021/12/12 02:04:32;;;;;;;30.67;11.30;;;;;;;3.10;100.00;101802.56;6246228;23;20038;-88
2021/12/12 02:07:00;;;;;;;37.17;12.00;;;;;;;3.42;100.00;101861.28;6246229;23;20508;-87
2021/12/12 02:09:29;;;;;;;27.60;10.88;;;;;;;3.45;100.00;101862.81;6245990;23;20000;-88
2021/12/12 02:11:59;;;;;;;36.80;11.50;;;;;;;3.49;100.00;101858.88;6220005;23;20004;-88
2021/12/12 02:14:28;;;;;;;35.42;10.20;;;;;;;3.54;100.00;101858.44;6218880;23;20012;-88
2021/12/12 02:16:58;;;;;;;33.00;11.15;;;;;;;3.53;100.00;101868.34;6245596;23;20008;-88
2021/12/12 02:19:38;;;;;;;32.35;11.18;;;;;;;3.31;100.00;101816.69;6246124;23;20034;-88
2021/12/12 02:35:55;;;;;;;33.88;11.50;;;;;;;3.66;100.00;101854.59;6223185;23;20023;-87
2021/12/12 02:38:27;;;;;;;34.70;10.60;;;;;;;3.44;100.00;101805.66;6194088;23;20004;-88
2021/12/12 02:40:58;;;;;;;31.85;11.32;;;;;;;3.62;100.00;101832.56;6218938;23;20320;-88
2021/12/12 02:43:27;;;;;;;36.38;11.18;;;;;;;3.47;100.00;101802.66;6219091;23;20050;-88
2021/12/12 02:45:56;;;;;;;29.52;11.23;;;;;;;3.75;100.00;101834.06;6219590;23;20012;-88
2021/12/12 02:48:29;;;;;;;31.35;10.85;;;;;;;3.80;100.00;101821.91;6245829;23;20450;-88
2021/12/12 02:50:58;;;;;;;27.15;9.85;;;;;;;3.86;100.00;101834.75;6218389;23;20011;-88
2021/12/12 02:53:32;;;;;;;36.75;10.40;;;;;;;3.61;100.00;101792.47;6194507;23;20015;-88
2021/12/12 02:56:07;;;;;;;32.05;10.60;;;;;;;3.66;100.00;101793.72;6245827;23;20003;-88
2021/12/12 02:58:33;;;;;;;29.67;10.43;;;;;;;3.63;100.00;101783.28;6245780;23;20000;-88
2021/12/12 03:01:10;;;;;;;32.08;10.82;;;;;;;3.90;100.00;101811.16;6245495;23;20016;-88
2021/12/12 03:03:40;;;;;;;28.58;10.43;;;;;;;3.43;100.00;101750.28;6245655;23;20011;-88
2021/12/12 03:06:11;;;;;;;23.60;9.13;;;;;;;3.76;100.00;101774.88;6218776;23;20007;-88
2021/12/12 03:08:41;;;;;;;30.33;11.60;;;;;;;3.39;100.00;101731.94;6218331;23;20004;-88
2021/12/12 03:11:10;;;;;;;31.70;10.90;;;;;;;3.95;100.00;101816.06;6218688;23;20004;-88
2021/12/12 03:13:37;;;;;;;36.22;11.57;;;;;;;3.80;100.00;101807.66;6218679;23;20004;-88
2021/12/12 03:16:04;;;;;;;40.03;10.50;;;;;;;3.75;100.00;101796.50;6193881;23;20008;-88
2021/12/12 03:18:43;;;;;;;40.25;12.10;;;;;;;3.96;100.00;101815.91;6193598;23;20011;-88
2021/12/12 03:21:16;;;;;;;38.17;12.27;;;;;;;3.95;100.00;101816.06;6245564;23;20012;-88
2021/12/12 03:23:46;;;;;;;32.45;12.10;;;;;;;3.79;100.00;101788.00;6218510;23;20004;-88
2021/12/12 03:26:13;;;;;;;37.28;12.32;;;;;;;3.72;100.00;101768.13;6218679;23;20308;-88
2021/12/12 03:28:42;;;;;;;38.35;12.13;;;;;;;3.97;100.00;101804.19;6245430;23;20007;-87
2021/12/12 03:31:14;;;;;;;31.25;12.50;;;;;;;3.94;100.00;101793.75;6193942;23;20011;-88
2021/12/12 03:33:40;;;;;;;33.83;11.90;;;;;;;4.02;100.00;101785.78;6217786;23;20062;-87
2021/12/12 03:36:10;;;;;;;34.13;12.38;;;;;;;3.65;100.00;101716.03;6218437;23;20008;-87
2021/12/12 03:38:38;;;;;;;32.47;12.15;;;;;;;3.99;100.00;101780.72;6218875;23;20012;-87
2021/12/12 03:41:07;;;;;;;38.55;12.68;;;;;;;3.99;100.00;101777.19;6243762;23;20007;-88
2021/12/12 03:43:35;;;;;;;27.58;10.88;;;;;;;4.10;100.00;101811.88;6245213;23;20071;-88
2021/12/12 03:46:00;;;;;;;37.60;13.70;;;;;;;3.84;100.00;101752.69;6218335;23;20370;-88
2021/12/12 03:48:30;;;;;;;36.58;13.75;;;;;;;4.09;100.00;101801.28;6245398;23;20011;-88
2021/12/12 03:50:58;;;;;;;35.83;13.57;;;;;;;3.84;100.00;101750.00;6245605;23;20011;-88
2021/12/12 03:53:26;;;;;;;38.00;13.70;;;;;;;3.69;100.00;101720.94;6245060;23;20134;-88
2021/12/12 03:55:55;;;;;;;33.33;14.23;;;;;;;4.08;100.00;101788.88;6218311;23;20431;-88
2021/12/12 03:58:27;;;;;;;37.22;14.60;;;;;;;4.11;100.00;101793.94;6245256;23;20004;-89
2021/12/12 04:01:17;;;;;;;36.80;15.70;;;;;;;3.78;100.00;101729.09;6192813;23;20082;-89
2021/12/12 04:03:45;;;;;;;34.85;16.27;;;;;;;3.90;100.00;101746.72;6245148;23;20046;-89
2021/12/12 04:06:14;;;;;;;34.65;16.15;;;;;;;4.15;100.00;101785.44;6218266;23;20028;-88
2021/12/12 04:08:46;;;;;;;30.70;14.70;;;;;;;3.75;100.00;101726.69;6245069;23;20004;-89
2021/12/12 04:11:36;;;;;;;36.08;17.10;;;;;;;3.88;100.00;101739.78;6218302;23;20420;-89
2021/12/12 04:14:05;;;;;;;36.78;16.75;;;;;;;3.83;100.00;101729.50;6217716;23;20009;-89
2021/12/12 04:16:34;;;;;;;34.17;15.52;;;;;;;4.26;100.00;101788.91;6217667;23;20000;-89
2021/12/12 04:19:01;;;;;;;33.75;15.35;;;;;;;4.07;100.00;101768.38;6218401;23;20339;-88
2021/12/12 04:21:28;;;;;;;30.67;15.15;;;;;;;4.08;100.00;101754.78;6245238;23;20050;-89
2021/12/12 04:23:55;;;;;;;32.20;14.60;;;;;;;4.29;100.00;101804.72;6218495;23;20004;-89
2021/12/12 04:26:28;;;;;;;28.50;13.63;;;;;;;4.24;100.00;101783.69;6218567;23;20018;-89
2021/12/12 04:29:18;;;;;;;31.00;13.82;;;;;;;4.26;100.00;101795.13;6218224;23;20012;-89
2021/12/12 04:31:49;;;;;;;27.02;11.43;;;;;;;4.30;100.00;101785.75;6206510;23;20447;-88
2021/12/12 04:34:16;;;;;;;25.10;12.55;;;;;;;4.16;100.00;101772.84;6244443;23;20000;-88
2021/12/12 04:36:49;;;;;;;30.52;14.20;;;;;;;4.23;100.00;101776.63;6244848;23;20454;-88
2021/12/12 04:39:23;;;;;;;29.10;12.93;;;;;;;4.38;100.00;101801.13;6217875;23;20328;-88
2021/12/12 04:41:51;;;;;;;35.88;13.98;;;;;;;4.08;100.00;101749.41;6244749;23;20061;-88
2021/12/12 04:44:25;;;;;;;24.33;13.40;;;;;;;4.33;100.00;101784.63;6244909;23;20079;-88
2021/12/12 04:50:03;;;;;;;28.10;13.25;;;;;;;4.12;100.00;101756.19;6245113;23;20016;-88
2021/12/12 04:52:54;;;;;;;27.80;13.50;;;;;;;4.14;100.00;101754.19;6217380;23;20000;-88
2021/12/12 04:55:39;;;;;;;22.45;13.60;;;;;;;4.45;100.00;101794.16;6217988;23;20008;-87
2021/12/12 04:58:45;;;;;;;23.73;12.88;;;;;;;4.53;100.00;101801.44;6218066;23;20038;-88
2021/12/12 05:01:24;;;;;;;27.88;13.23;;;;;;;4.27;100.00;101772.63;6184219;23;20027;-88
2021/12/12 05:03:56;;;;;;;30.65;14.15;;;;;;;4.01;100.00;101729.53;6244747;23;20000;-88
2021/12/12 05:06:45;;;;;;;20.15;10.05;;;;;;;4.48;100.00;101791.16;6217809;23;20000;-89
2021/12/12 05:09:33;;;;;;;25.77;12.23;;;;;;;4.54;100.00;101820.09;6217362;23;20058;-88
2021/12/12 05:12:04;;;;;;;27.02;12.63;;;;;;;4.35;100.00;101791.50;6217825;23;20000;-88
2021/12/12 05:14:48;;;;;;;24.38;12.45;;;;;;;4.55;100.00;101813.75;6244545;22;20519;-88
2021/12/12 05:17:26;;;;;;;22.92;13.15;;;;;;;4.56;100.00;101812.75;6217898;23;20000;-88
2021/12/12 05:20:00;;;;;;;20.85;12.55;;;;;;;4.40;100.00;101780.34;6244748;23;20004;-88
2021/12/12 05:22:43;;;;;;;24.50;12.75;;;;;;;4.58;100.00;101820.66;6244774;23;20416;-88
2021/12/12 05:25:16;;;;;;;22.45;13.40;;;;;;;4.34;100.00;101778.25;6244823;23;20049;-91
2021/12/12 05:27:47;;;;;;;23.42;13.27;;;;;;;4.60;100.00;101821.34;6217246;23;20423;-88
2021/12/12 05:30:21;;;;;;;23.95;13.00;;;;;;;4.64;100.00;101827.28;6217753;23;20039;-89
2021/12/12 05:32:48;;;;;;;22.90;12.68;;;;;;;4.62;100.00;101815.81;6217591;23;20000;-88
2021/12/12 05:35:18;;;;;;;21.73;13.07;;;;;;;4.63;100.00;101810.28;6244539;23;20032;-88
2021/12/12 05:37:48;;;;;;;21.00;12.30;;;;;;;4.49;100.00;101781.28;6244537;23;20340;-88
2021/12/12 05:40:15;;;;;;;21.73;12.73;;;;;;;4.51;100.00;101790.00;6217658;23;20010;-87
2021/12/12 05:42:42;;;;;;;21.52;12.20;;;;;;;4.57;100.00;101787.53;6217763;23;20420;-88
2021/12/12 05:45:08;;;;;;;22.42;12.07;;;;;;;4.67;100.00;101800.09;6217461;23;20050;-87
2021/12/12 05:47:34;;;;;;;21.88;12.65;;;;;;;4.69;100.00;101809.66;6244286;23;20050;-87
2021/12/12 05:50:01;;;;;;;22.88;12.95;;;;;;;4.82;100.00;101827.28;6192671;23;20091;-88
2021/12/12 05:52:27;;;;;;;24.67;12.30;;;;;;;4.76;100.00;101817.16;6193560;23;20320;-88
2021/12/12 05:54:53;;;;;;;23.35;12.35;;;;;;;4.87;100.00;101824.97;6219788;23;20000;-88
2021/12/12 05:57:24;;;;;;;19.75;12.02;;;;;;;4.89;100.00;101831.06;6219459;23;20019;-88
2021/12/12 05:59:52;;;;;;;20.33;12.05;;;;;;;4.73;100.00;101812.91;6214161;23;20027;-88
2021/12/12 06:02:25;;;;;;;24.70;13.35;;;;;;;4.50;100.00;101770.38;6188768;23;20004;-88
2021/12/12 06:04:59;;;;;;;20.23;12.23;;;;;;;4.70;100.00;101806.00;6189091;23;20044;-87
2021/12/12 06:07:25;;;;;;;23.10;13.27;;;;;;;4.77;100.00;101817.00;6189126;23;20005;-88
2021/12/12 06:09:51;;;;;;;20.25;12.93;;;;;;;4.77;100.00;101825.06;6189278;23;20043;-88
2021/12/12 06:12:19;;;;;;;20.70;13.40;;;;;;;4.94;100.00;101841.34;6189157;23;20012;-88
2021/12/12 06:14:45;;;;;;;21.98;14.00;;;;;;;4.77;100.00;101816.13;6189276;23;20028;-88
2021/12/12 06:17:13;;;;;;;25.20;14.95;;;;;;;4.62;100.00;101802.38;6215800;23;20432;-88
2021/12/12 06:19:40;;;;;;;22.20;14.45;;;;;;;4.74;100.00;101793.94;6188424;23;20004;-88
2021/12/12 06:22:08;;;;;;;26.88;15.07;;;;;;;4.82;100.00;101811.16;6214070;23;20387;-88
2021/12/12 06:24:35;;;;;;;25.65;13.02;;;;;;;4.77;100.00;101806.25;6215659;23;20420;-87
2021/12/12 06:27:06;;;;;;;23.17;14.73;;;;;;;5.02;100.00;101831.50;6188788;23;20013;-88
2021/12/12 06:29:32;;;;;;;23.98;15.27;;;;;;;5.07;100.00;101856.09;6189049;23;20004;-88
2021/12/12 06:31:58;;;;;;;24.58;14.50;;;;;;;5.09;100.00;101850.56;6163990;23;20459;-90
2021/12/12 06:34:24;;;;;;;22.92;14.07;;;;;;;5.20;100.00;101847.63;6189543;23;20100;-92
2021/12/12 06:43:47;;;;;;;;;;;;;;;;;;;;;
2021/12/12 07:04:08;;;;;;;30.05;18.17;;;;;;;5.40;100.00;101868.97;6120403;23;20513;-96
2021/12/12 07:10:35;;;;;;;30.40;17.30;;;;;;;5.21;100.00;101827.81;6187463;23;20011;-95
2021/12/12 08:20:35;;;;;;;37.75;20.60;;;;;;;5.52;100.00;101837.25;6198409;22;20024;-93
2021/12/12 08:39:27;;;;;;;42.75;21.05;;;;;;;5.97;100.00;101895.50;6228787;22;20028;-94
2021/12/12 09:14:05;;;;;;;43.95;21.15;;;;;;;5.89;100.00;101873.84;5923332;24;20016;-93
2021/12/12 09:24:17;;;;;;;38.78;20.25;;;;;;;6.42;100.00;101960.91;5985825;23;20031;-94
2021/12/12 09:31:31;;;;;;;41.53;19.15;;;;;;;6.54;100.00;101975.81;6064184;23;20034;-93
2021/12/12 09:42:27;;;;;;;;;;;;;;;;;;;;;
2021/12/12 09:53:00;;;;;;;;;;;;;;;;;;;;;
2021/12/12 09:56:23;;;;;;;36.35;18.90;;;;;;;6.70;100.00;101998.47;6224796;23;20394;-93
2021/12/12 09:59:49;;;;;;;;;;;;;;;;;;;;;
2021/12/12 10:02:58;;;;;;;37.22;17.48;;;;;;;6.76;100.00;101990.59;6154317;23;20080;-94
2021/12/12 10:27:14;;;;;;;43.42;20.23;;;;;;;6.92;100.00;102005.13;5846184;24;20438;-94
2021/12/12 10:57:58;;;;;;;;;;;;;;;;;;;;;
2021/12/12 11:05:00;;;;;;;;;;;;;;;;;;;;;
2021/12/12 11:25:09;;;;;;;35.58;19.00;;;;;;;7.30;100.00;101998.31;5954702;24;20047;-93
2021/12/12 11:32:14;;;;;;;;;;;;;;;;;;;;;
2021/12/12 11:35:11;;;;;;;33.22;19.05;;;;;;;7.33;100.00;101970.16;5844445;24;20070;-94
2021/12/12 11:41:37;;;;;;;33.53;19.05;;;;;;;7.46;100.00;101989.41;5842913;24;20153;-93
2021/12/12 12:17:45;;;;;;;;;;;;;;;;;;;;;
2021/12/12 12:20:51;;;;;;;32.03;17.67;;;;;;;7.28;100.00;101935.56;6241381;23;20090;-93
2021/12/12 12:23:32;;;;;;;25.38;15.65;;;;;;;7.76;100.00;102005.97;6186487;23;20000;-94
2021/12/12 12:29:34;;;;;;;32.47;17.67;;;;;;;7.69;100.00;101994.16;6246764;23;20062;-94
2021/12/12 12:32:39;;;;;;;31.67;18.63;;;;;;;7.85;100.00;102017.63;6195979;23;20336;-94
2021/12/12 12:35:49;;;;;;;31.13;17.83;;;;;;;7.85;100.00;102010.41;6219986;23;20498;-95
2021/12/12 12:38:56;;;;;;;29.23;17.80;;;;;;;7.93;100.00;102012.25;6243464;23;20406;-94
2021/12/12 12:42:03;;;;;;;31.52;18.90;;;;;;;7.96;100.00;102009.19;6219466;23;20000;-93
2021/12/12 12:45:10;;;;;;;30.92;19.15;;;;;;;7.99;100.00;102016.97;6218942;23;20010;-94
2021/12/12 12:48:20;;;;;;;31.00;18.42;;;;;;;8.00;100.00;102013.25;6219292;23;20079;-93
2021/12/12 12:51:02;;;;;;;31.02;18.58;;;;;;;7.46;100.00;101937.28;6219841;23;20331;-93
2021/12/12 13:46:19;;;;;;;;;;;;;;;;;;;;;
2021/12/12 13:56:32;;;;;;;31.17;18.87;;;;;;;8.08;100.00;102047.53;6154396;23;20084;-95
2021/12/12 14:03:23;;;;;;;;;;;;;;;;;;;;;
2021/12/12 14:06:53;;;;;;;;;;;;;;;;;;;;;
2021/12/12 14:10:17;;;;;;;;;;;;;;;;;;;;;
2021/12/12 14:13:44;;;;;;;41.67;22.25;;;;;;;7.62;100.00;101980.50;6160201;23;20088;-94
2021/12/12 14:20:27;;;;;;;41.13;22.95;;;;;;;7.98;100.00;102044.16;6012473;23;20108;-95
2021/12/12 14:27:57;;;;;;;;;;;;;;;;;;;;;
2021/12/12 14:31:06;;;;;;;;;;;;;;;;;;;;;
2021/12/12 14:37:07;;;;;;;40.83;23.23;;;;;;;7.99;100.00;102046.69;5997113;23;20035;-93
2021/12/12 15:11:54;;;;;;;43.95;25.73;;;;;;;7.89;100.00;102038.75;5773543;24;20057;-94
2021/12/12 15:22:22;;;;;;;;;;;;;;;;;;;;;
2021/12/12 16:56:55;;;;;;;139.15;48.85;;;;;;;8.38;100.00;102108.16;5672189;25;20088;-94
2021/12/12 16:59:33;;;;;;;127.43;47.67;;;;;;;8.38;100.00;102100.06;5697266;24;20041;-92
2021/12/12 21:32:51;;;;;;;66.00;37.10;;;;;;;8.62;100.00;102238.22;6244869;22;20625;-93
2021/12/12 21:35:20;;;;;;;70.75;37.42;;;;;;;8.69;100.00;102244.66;6220570;23;20012;-92
2021/12/12 21:37:48;;;;;;;73.65;36.53;;;;;;;8.74;100.00;102256.66;6220258;23;20007;-92
2021/12/12 21:40:17;;;;;;;69.40;37.75;;;;;;;8.59;100.00;102248.38;6220829;23;20000;-92
2021/12/12 21:43:00;;;;;;;69.10;37.03;;;;;;;8.93;100.00;102284.41;6220071;23;20027;-92
2021/12/12 21:45:33;;;;;;;;;;;;;;;9.11;100.00;102330.28;6220861;23;20012;-91
2021/12/12 21:48:06;;;;;;;69.25;36.97;;;;;;;8.61;100.00;102250.91;6220162;23;19904;-91
2021/12/12 21:50:40;;;;;;;72.78;37.40;;;;;;;8.58;100.00;102254.78;6221407;23;20015;-91
2021/12/12 21:53:11;;;;;;;68.40;37.50;;;;;;;8.59;100.00;102247.50;6220192;23;20411;-91
2021/12/12 21:55:55;;;;;;;71.05;39.22;;;;;;;9.09;100.00;102329.59;6220001;23;20351;-91
2021/12/12 21:58:42;;;;;;;71.47;38.72;;;;;;;9.08;100.00;102328.75;6220433;23;20004;-92
2021/12/12 22:01:20;;;;;;;71.07;37.28;;;;;;;8.53;100.00;102242.78;6246808;23;20003;-92
2021/12/12 22:03:55;;;;;;;74.63;38.40;;;;;;;8.87;100.00;102302.19;6189745;23;20007;-92
2021/12/12 22:06:44;;;;;;;70.40;38.65;;;;;;;9.08;100.00;102326.03;6215724;23;20011;-92
2021/12/12 22:09:47;;;;;;;73.53;38.42;;;;;;;8.53;100.00;102245.47;6190244;23;20008;-92
2021/12/12 22:12:17;;;;;;;;;;;;;;;9.06;100.00;102338.88;6176466;23;20083;-91
2021/12/12 22:15:11;;;;;;;75.90;39.55;;;;;;;8.53;100.00;102250.91;6214970;23;19904;-92
2021/12/12 22:17:51;;;;;;;77.78;38.83;;;;;;;8.78;100.00;102306.75;6189348;23;20396;-92
2021/12/12 22:20:22;;;;;;;74.70;38.28;;;;;;;8.76;100.00;102299.81;6214910;23;20083;-91
2021/12/12 22:22:57;;;;;;;78.18;38.90;;;;;;;8.69;100.00;102282.53;6216436;23;20071;-91
2021/12/12 22:25:55;;;;;;;76.78;39.60;;;;;;;9.03;100.00;102338.38;6214987;23;20008;-92
2021/12/12 22:28:30;;;;;;;77.32;39.35;;;;;;;8.48;100.00;102258.69;6166625;23;20011;-91
2021/12/12 22:31:02;;;;;;;78.85;39.78;;;;;;;9.04;100.00;102345.50;6213834;23;20037;-91
2021/12/12 22:33:37;;;;;;;80.45;40.97;;;;;;;9.00;100.00;102347.69;6213618;23;20368;-91
2021/12/12 22:36:15;;;;;;;79.85;40.72;;;;;;;8.64;100.00;102293.88;6214259;23;20000;-91
2021/12/12 22:38:47;;;;;;;82.68;41.72;;;;;;;8.82;100.00;102309.13;6189604;23;20038;-90
2021/12/12 22:41:26;;;;;;;83.50;41.83;;;;;;;8.48;100.00;102270.34;6189453;23;20058;-92
2021/12/12 22:43:59;;;;;;;83.35;41.72;;;;;;;8.49;100.00;102273.88;6214754;23;20004;-92
2021/12/12 22:46:25;;;;;;;85.05;42.30;;;;;;;8.41;100.00;102263.88;6189868;23;20008;-92
2021/12/12 22:49:03;;;;;;;81.68;42.53;;;;;;;8.80;100.00;102328.22;6215542;23;20015;-93
2021/12/12 22:51:36;;;;;;;83.30;42.33;;;;;;;8.47;100.00;102274.03;6214383;23;20129;-93
2021/12/12 22:54:19;;;;;;;82.50;42.88;;;;;;;8.33;100.00;102271.97;6215605;23;20031;-93
2021/12/12 22:56:49;;;;;;;77.13;42.47;;;;;;;8.42;100.00;102282.63;6190557;23;20034;-93
2021/12/12 22:59:24;;;;;;;77.70;42.05;;;;;;;8.45;100.00;102286.91;6215169;23;20032;-93
2021/12/12 23:02:03;;;;;;;83.85;44.13;;;;;;;8.43;100.00;102281.63;6190041;23;20005;-93
2021/12/12 23:04:53;;;;;;;74.75;40.95;;;;;;;8.91;100.00;102364.94;6215325;23;20088;-93
2021/12/12 23:07:22;;;;;;;82.07;43.10;;;;;;;8.56;100.00;102319.06;6190226;23;20545;-93
2021/12/12 23:10:09;;;;;;;77.97;43.72;;;;;;;8.69;100.00;102339.38;6190019;23;20063;-91
2021/12/12 23:12:56;;;;;;;78.05;41.85;;;;;;;8.39;100.00;102282.97;6216267;23;20035;-93
2021/12/12 23:15:59;;;;;;;74.38;41.28;;;;;;;8.39;100.00;102280.25;6215018;23;20436;-93
2021/12/12 23:18:47;;;;;;;79.45;38.58;;;;;;;8.72;100.00;102331.75;6190313;23;20009;-93
2021/12/12 23:21:27;;;;;;;68.05;38.78;;;;;;;8.43;100.00;102300.56;6215391;23;20032;-94
2021/12/12 23:24:05;;;;;;;65.32;39.17;;;;;;;8.53;100.00;102318.53;6216165;23;20007;-92
2021/12/12 23:26:38;;;;;;;65.38;38.97;;;;;;;8.30;100.00;102283.09;6214468;23;20044;-93
2021/12/12 23:31:53;;;;;;;64.25;39.08;;;;;;;8.82;100.00;102349.72;6226468;23;20009;-92
2021/12/12 23:34:26;;;;;;;60.42;36.78;;;;;;;8.61;100.00;102321.25;6189613;23;20084;-93
2021/12/12 23:37:09;;;;;;;60.03;35.92;;;;;;;8.27;100.00;102276.19;6214865;23;20001;-93
2021/12/12 23:39:44;;;;;;;57.85;35.92;;;;;;;8.16;100.00;102271.91;6215948;23;20428;-93
2021/12/12 23:42:26;;;;;;;58.90;35.25;;;;;;;8.23;100.00;102272.13;6216281;23;20009;-93
2021/12/12 23:44:59;;;;;;;60.33;36.45;;;;;;;8.21;100.00;102268.75;6214241;23;20005;-93
2021/12/12 23:47:35;;;;;;;54.33;34.85;;;;;;;8.33;100.00;102293.63;6214436;23;20011;-93
2021/12/12 23:50:28;;;;;;;58.03;35.22;;;;;;;8.17;100.00;102270.06;6216551;23;20001;-93
2021/12/12 23:52:59;;;;;;;54.72;34.83;;;;;;;8.21;100.00;102283.09;6214224;23;20004;-93
2021/12/12 23:55:41;;;;;;;59.88;35.95;;;;;;;8.17;100.00;102280.88;6189144;23;20028;-91
2021/12/12 23:58:13;;;;;;;56.83;34.72;;;;;;;8.52;100.00;102341.16;6189509;23;20004;-92
